Flight Track Log - Related Links

Times and Time Zones

All times are in EDT time to prevent confusion due to time zone crossing. See the UAL582 flight status page for this flight to view local times or setup timezone preferences in your user account.

Time Position Orientation Groundspeed Altitude Reporting Facility
EDT Latitude Longitude Course Direction KTS MPH feet Rate Location/Type
Sun 09:24:14 PM 42.0167 -87.9500 253° West 177 204 2,600  Level Chicago TRACON
Sun 09:25:14 PM 42.0667 -88.0000 323° Northwest 238 274 4,700 2,854 Climbing Chicago TRACON
Sun 09:26:00 PM 41.8629 -88.3678 242° Southwest  Level FlightAware Approximate
Sun 09:27:00 PM 41.8244 -88.5239 254° West  Level FlightAware Approximate
Sun 09:27:19 PM 42.0928 -88.1617 282° West 283 326 11,400  Level Chicago Center
Sun 09:28:00 PM 41.7894 -88.6822 254° West  Level FlightAware Approximate
Sun 09:28:21 PM 42.0361 -88.2636 233° Southwest 333 383 12,900  Level Chicago Center
Sun 09:29:00 PM 41.7542 -88.8403 253° West  Level FlightAware Approximate
Sun 09:29:23 PM 41.9700 -88.3844 234° Southwest 394 453 15,900  Level Chicago Center
Sun 09:30:25 PM 41.8836 -88.5353 232° Southwest 424 488 19,200 2,195 Climbing Chicago Center
Sun 09:31:26 PM 41.8228 -88.6689 239° Southwest 428 493 20,400 1,122 Climbing Chicago Center
Sun 09:32:28 PM 41.7856 -88.8194 252° West 430 495 21,500 1,016 Climbing Chicago Center
Sun 09:33:30 PM 41.7472 -88.9728 252° West 436 502 22,500 919 Climbing Chicago Center
Sun 09:34:32 PM 41.7081 -89.1294 252° West 445 512 23,400 780 Climbing Chicago Center
Sun 09:35:33 PM 41.6692 -89.2903 252° West 461 531 24,100 732 Climbing Chicago Center
Sun 09:36:35 PM 41.6203 -89.4842 251° West 463 533 24,900 585 Climbing Chicago Center
Sun 09:37:36 PM 41.5817 -89.6347 251° West 465 535 25,300 488 Climbing Chicago Center
Sun 09:38:38 PM 41.5400 -89.8006 251° West 472 543 25,900 435 Climbing Chicago Center
Sun 09:39:40 PM 41.4972 -89.9647 251° West 472 543 26,200 683 Climbing Chicago Center
Sun 09:40:41 PM 41.4458 -90.1628 251° West 474 545 27,300 829 Climbing Chicago Center
Sun 09:41:43 PM 41.4047 -90.3236 251° West 467 537 27,900 683 Climbing Chicago Center
Sun 09:42:44 PM 41.3619 -90.4881 251° West 470 541 28,700 829 Climbing Chicago Center
Sun 09:43:46 PM 41.3050 -90.6525 245° Southwest 505 581 29,600 829 Climbing Chicago Center
Sun 09:44:47 PM 41.2264 -90.7992 235° Southwest 494 568 30,400 634 Climbing Chicago Center
Sun 09:45:49 PM 41.1403 -90.9442 232° Southwest 499 574 30,900 537 Climbing Chicago Center
Sun 09:46:50 PM 41.0528 -91.0911 232° Southwest 508 585 31,500 537 Climbing Chicago Center
Sun 09:47:52 PM 40.9644 -91.2381 232° Southwest 512 589 32,000 683 Climbing Chicago Center
Sun 09:48:53 PM 40.8608 -91.4114 232° Southwest 516 594 32,900 634 Climbing Chicago Center
Sun 09:49:55 PM 40.7719 -91.5586 231° Southwest 517 595 33,300 439 Climbing Chicago Center
Sun 09:50:56 PM 40.6822 -91.7072 232° Southwest 520 598 33,800 372 Climbing Chicago Center
Sun 09:51:48 PM 40.6069 -91.8267 230° Southwest 525 604 34,000 105 Climbing Kansas City Center
Sun 09:52:50 PM 40.4975 -92.0061 231° Southwest 528 608 34,000  Level Kansas City Center
Sun 09:53:51 PM 40.4053 -92.1564 231° Southwest 529 609 34,000  Level Kansas City Center
Sun 09:54:53 PM 40.3117 -92.3078 231° Southwest 533 613 34,000  Level Kansas City Center
Sun 09:55:54 PM 40.2153 -92.4589 230° Southwest 532 612 34,000  Level Kansas City Center
Sun 09:56:55 PM 40.1333 -92.6097 235° Southwest 530 610 34,000  Level Kansas City Center
Sun 09:57:57 PM 40.0589 -92.7875 241° Southwest 522 601 34,000  Level Kansas City Center
Sun 09:59:00 PM 39.9947 -92.9556 244° Southwest 519 597 34,000  Level Kansas City Center
Sun 10:00:02 PM 39.9289 -93.1225 243° Southwest 520 598 34,000  Level Kansas City Center
Sun 10:01:03 PM 39.8636 -93.2897 243° Southwest 521 600 34,000  Level Kansas City Center
Sun 10:02:05 PM 39.7850 -93.4900 243° Southwest 521 600 34,000  Level Kansas City Center
Sun 10:03:06 PM 39.7186 -93.6569 243° Southwest 522 601 34,000  Level Kansas City Center
Sun 10:04:07 PM 39.6586 -93.8133 244° Southwest 517 595 34,000  Level Kansas City Center
Sun 10:05:09 PM 39.5842 -93.9989 243° Southwest 518 596 34,000  Level Kansas City Center
Sun 10:06:10 PM 39.5208 -94.1564 243° Southwest 514 592 34,000  Level Kansas City Center
Sun 10:07:11 PM 39.4461 -94.3419 243° Southwest 518 596 34,000  Level Kansas City Center
Sun 10:08:13 PM 39.3828 -94.4992 243° Southwest 516 594 34,000  Level Kansas City Center
Sun 10:09:14 PM 39.3183 -94.6564 242° Southwest 515 593 34,000  Level Kansas City Center
Sun 10:10:15 PM 39.2350 -94.8347 239° Southwest 516 594 34,000  Level Kansas City Center
Sun 10:11:17 PM 39.1553 -94.9853 236° Southwest 521 600 34,000  Level Kansas City Center
Sun 10:12:18 PM 39.0697 -95.1489 236° Southwest 522 601 34,000  Level Kansas City Center
Sun 10:13:19 PM 38.9831 -95.3131 236° Southwest 523 602 34,000  Level Kansas City Center
Sun 10:14:21 PM 38.9050 -95.4625 236° Southwest 522 601 34,000  Level Kansas City Center
Sun 10:15:22 PM 38.8258 -95.6092 235° Southwest 522 601 34,000  Level Kansas City Center
Sun 10:16:23 PM 38.7358 -95.7839 237° Southwest 525 604 34,000  Level Kansas City Center
Sun 10:17:24 PM 38.6561 -95.9322 235° Southwest 528 608 34,000  Level Kansas City Center
Sun 10:18:26 PM 38.5764 -96.0794 235° Southwest 525 604 34,000  Level Kansas City Center
Sun 10:19:27 PM 38.4842 -96.2481 235° Southwest 521 600 34,000  Level Kansas City Center
Sun 10:20:28 PM 38.4056 -96.3947 236° Southwest 522 601 34,000  Level Kansas City Center
Sun 10:21:29 PM 38.3211 -96.5475 235° Southwest 529 609 34,000  Level Kansas City Center
Sun 10:22:31 PM 38.2394 -96.6997 236° Southwest 523 602 34,000  Level Kansas City Center
Sun 10:23:32 PM 38.1525 -96.8561 235° Southwest 526 605 34,000  Level Kansas City Center
Sun 10:24:33 PM 38.0714 -97.0039 235° Southwest 524 603 34,000  Level Kansas City Center
Sun 10:25:34 PM 37.9867 -97.1542 234° Southwest 523 602 34,000  Level Kansas City Center
Sun 10:26:35 PM 37.9022 -97.3058 235° Southwest 524 603 34,000  Level Kansas City Center
Sun 10:27:36 PM 37.8108 -97.4689 235° Southwest 522 601 34,000  Level Kansas City Center
Sun 10:28:38 PM 37.7450 -97.6275 242° Southwest 513 590 34,000  Level Kansas City Center
Sun 10:29:39 PM 37.7039 -97.7967 253° West 504 580 34,000  Level Kansas City Center
Sun 10:30:40 PM 37.6719 -97.9658 257° West 499 574 34,000  Level Kansas City Center
Sun 10:31:41 PM 37.6336 -98.1644 256° West 496 571 34,000  Level Kansas City Center
Sun 10:32:42 PM 37.5992 -98.3342 256° West 497 572 34,000  Level Kansas City Center
Sun 10:33:43 PM 37.5656 -98.5042 256° West 499 574 34,000  Level Kansas City Center
Sun 10:34:45 PM 37.5319 -98.6733 256° West 498 573 34,000  Level Kansas City Center
Sun 10:35:46 PM 37.4981 -98.8428 256° West 498 573 34,000  Level Kansas City Center
Sun 10:36:47 PM 37.4644 -99.0117 256° West 498 573 34,000  Level Kansas City Center
Sun 10:37:48 PM 37.4281 -99.1794 255° West 498 573 34,000  Level Kansas City Center
Sun 10:38:49 PM 37.3911 -99.3494 255° West 502 578 34,000  Level Kansas City Center
Sun 10:39:50 PM 37.3561 -99.5264 256° West 501 577 34,000  Level Kansas City Center
Sun 10:40:51 PM 37.3167 -99.7156 255° West 500 575 34,000  Level Kansas City Center
Sun 10:41:53 PM 37.2814 -99.8772 255° West 501 577 34,000  Level Kansas City Center
Sun 10:42:54 PM 37.2481 -100.0378 255° West 498 573 34,000  Level Kansas City Center
Sun 10:43:55 PM 37.2072 -100.2281 255° West 501 577 34,000  Level Kansas City Center
Sun 10:44:56 PM 37.1722 -100.3903 255° West 502 578 34,000  Level Kansas City Center
Sun 10:45:57 PM 37.1367 -100.5519 255° West 501 577 34,000  Level Kansas City Center
Sun 10:46:58 PM 37.0944 -100.7419 254° West 503 579 34,000  Level Kansas City Center
Sun 10:47:59 PM 37.0581 -100.9036 254° West 502 578 34,000  Level Kansas City Center
Sun 10:49:00 PM 37.0319 -101.0675 259° West 502 578 34,000  Level Kansas City Center
Sun 10:50:01 PM 37.0089 -101.2600 262° West 500 575 34,000  Level Kansas City Center
Sun 10:51:02 PM 36.9869 -101.4236 261° West 499 574 34,000  Level Kansas City Center
Sun 10:52:12 PM 36.9619 -101.6142 261° West 499 574 34,000  Level Albuquerque Center
Sun 10:53:13 PM 36.9369 -101.8047 261° West 499 574 34,000  Level Albuquerque Center
Sun 10:54:14 PM 36.9150 -101.9697 261° West 501 577 34,000  Level Albuquerque Center
Sun 10:55:15 PM 36.8931 -102.1328 260° West 500 575 34,000  Level Albuquerque Center
Sun 10:56:16 PM 36.8667 -102.3281 260° West 501 577 34,000  Level Albuquerque Center
Sun 10:57:17 PM 36.8439 -102.4997 261° West 503 579 34,000  Level Albuquerque Center
Sun 10:58:18 PM 36.8228 -102.6578 261° West 506 582 34,000  Level Albuquerque Center
Sun 10:59:20 PM 36.7947 -102.8508 260° West 505 581 34,000  Level Albuquerque Center
Sun 11:00:21 PM 36.7722 -103.0164 260° West 505 581 34,000  Level Albuquerque Center
Sun 11:01:22 PM 36.7436 -103.2097 260° West 505 581 34,000  Level Albuquerque Center
Sun 11:02:23 PM 36.7203 -103.3756 260° West 506 582 34,000  Level Albuquerque Center
Sun 11:03:24 PM 36.6953 -103.5419 259° West 508 585 34,000  Level Albuquerque Center
Sun 11:04:25 PM 36.6675 -103.7361 260° West 509 586 34,000  Level Albuquerque Center
Sun 11:05:27 PM 36.6408 -103.9125 259° West 511 588 34,000  Level Albuquerque Center
Sun 11:06:28 PM 36.6142 -104.0867 259° West 510 587 34,000  Level Albuquerque Center
Sun 11:07:29 PM 36.5875 -104.2606 259° West 510 587 34,000  Level Albuquerque Center
Sun 11:08:30 PM 36.5606 -104.4325 259° West 507 583 34,000  Level Albuquerque Center
Sun 11:09:31 PM 36.5331 -104.6081 259° West 511 588 34,000  Level Albuquerque Center
Sun 11:10:33 PM 36.5056 -104.7825 259° West 512 589 34,000  Level Albuquerque Center
Sun 11:11:34 PM 36.4728 -104.9567 257° West 516 594 34,000  Level Albuquerque Center
Sun 11:12:35 PM 36.4319 -105.1275 254° West 514 592 34,000  Level Albuquerque Center
Sun 11:13:36 PM 36.3878 -105.3025 253° West 523 602 34,000  Level Albuquerque Center
Sun 11:14:37 PM 36.3475 -105.4750 254° West 521 600 34,000  Level Albuquerque Center
Sun 11:15:39 PM 36.3036 -105.6561 253° West 519 597 34,000  Level Albuquerque Center
Sun 11:16:40 PM 36.2619 -105.8261 253° West 518 596 34,000  Level Albuquerque Center
Sun 11:17:41 PM 36.2219 -105.9981 254° West 521 600 34,000  Level Albuquerque Center
Sun 11:18:42 PM 36.1786 -106.1683 253° West 521 600 34,000  Level Albuquerque Center
Sun 11:19:44 PM 36.1372 -106.3394 253° West 521 600 34,000  Level Albuquerque Center
Sun 11:20:45 PM 36.0944 -106.5083 253° West 519 597 34,000  Level Albuquerque Center
Sun 11:21:46 PM 36.0533 -106.6778 253° West 518 596 34,000  Level Albuquerque Center
Sun 11:22:48 PM 36.0022 -106.8800 253° West 517 595 34,000  Level Albuquerque Center
Sun 11:23:49 PM 35.9589 -107.0500 253° West 520 598 34,000  Level Albuquerque Center
Sun 11:24:50 PM 35.9150 -107.2153 252° West 521 600 34,000  Level Albuquerque Center
Sun 11:25:51 PM 35.8672 -107.4056 253° West 520 598 34,000  Level Albuquerque Center
Sun 11:26:53 PM 35.8250 -107.5700 252° West 523 602 34,000  Level Albuquerque Center
Sun 11:27:54 PM 35.7822 -107.7314 252° West 520 598 34,000  Level Albuquerque Center
Sun 11:28:55 PM 35.7319 -107.9225 252° West 523 602 34,000  Level Albuquerque Center
Sun 11:29:56 PM 35.6883 -108.0856 252° West 523 602 34,000  Level Albuquerque Center
Sun 11:30:58 PM 35.6444 -108.2486 252° West 522 601 34,000  Level Albuquerque Center
Sun 11:31:59 PM 35.5944 -108.4383 252° West 521 600 34,000  Level Albuquerque Center
Sun 11:33:00 PM 35.5503 -108.6011 252° West 522 601 34,000  Level Albuquerque Center
Sun 11:34:01 PM 35.5061 -108.7650 252° West 523 602 34,000  Level Albuquerque Center
Sun 11:35:03 PM 35.4600 -108.9581 254° West 524 603 34,000  Level Albuquerque Center
Sun 11:36:04 PM 35.4278 -109.1236 257° West 519 597 34,000  Level Albuquerque Center
Sun 11:37:05 PM 35.3889 -109.3161 256° West 519 597 34,000  Level Albuquerque Center
Sun 11:38:07 PM 35.3561 -109.4811 256° West 518 596 34,000  Level Albuquerque Center
Sun 11:39:08 PM 35.3200 -109.6442 255° West 516 594 34,000  Level Albuquerque Center
Sun 11:40:09 PM 35.2814 -109.8392 256° West 523 602 34,000  Level Albuquerque Center
Sun 11:41:10 PM 35.2483 -110.0047 256° West 525 604 34,000  Level Albuquerque Center
Sun 11:42:11 PM 35.2125 -110.1694 255° West 525 604 34,000  Level Albuquerque Center
Sun 11:43:13 PM 35.1725 -110.3606 256° West 520 598 34,000  Level Albuquerque Center
Sun 11:44:14 PM 35.1353 -110.5244 255° West 524 603 34,000  Level Albuquerque Center
Sun 11:45:15 PM 35.0933 -110.7167 255° West 523 602 34,000  Level Albuquerque Center
Sun 11:46:16 PM 35.0592 -110.8797 256° West 521 600 34,000  Level Albuquerque Center
Sun 11:47:17 PM 35.0300 -111.0489 258° West 518 596 34,000  Level Albuquerque Center
Sun 11:48:18 PM 35.0025 -111.2286 259° West 534 615 34,000  Level Albuquerque Center
Sun 11:49:20 PM 34.9722 -111.4000 258° West 525 604 34,000  Level Albuquerque Center
Sun 11:50:21 PM 34.9425 -111.5714 258° West 522 601 34,000  Level Albuquerque Center
Sun 11:51:22 PM 34.9097 -111.7489 257° West 520 598 34,000  Level Albuquerque Center
Sun 11:52:23 PM 34.8786 -111.9211 258° West 521 600 34,000  Level Albuquerque Center
Sun 11:53:24 PM 34.8469 -112.0933 257° West 522 601 34,000  Level Albuquerque Center
Sun 11:54:25 PM 34.8153 -112.2653 257° West 523 602 34,000  Level Albuquerque Center
Sun 11:55:26 PM 34.7839 -112.4372 258° West 522 601 34,000  Level Albuquerque Center
Sun 11:56:27 PM 34.7458 -112.6422 257° West 519 597 34,000  Level Albuquerque Center
Sun 11:57:28 PM 34.7133 -112.8128 257° West 518 596 34,000  Level Albuquerque Center
Sun 11:58:29 PM 34.6803 -112.9836 257° West 518 596 34,000  Level Albuquerque Center
Sun 11:59:30 PM 34.6486 -113.1531 257° West 518 596 34,000  Level Albuquerque Center
Mon 12:00:31 AM 34.6150 -113.3231 257° West 518 596 34,000  Level Albuquerque Center
Mon 12:01:32 AM 34.5817 -113.4911 256° West 514 592 34,000  Level Albuquerque Center
Mon 12:02:33 AM 34.5447 -113.6781 257° West 513 590 34,000  Level Albuquerque Center
Mon 12:03:34 AM 34.5117 -113.8453 257° West 511 588 34,000  Level Albuquerque Center
Mon 12:04:35 AM 34.4775 -114.0119 256° West 510 587 34,000  Level Albuquerque Center
Mon 12:05:35 AM 34.4425 -114.1786 256° West 510 587 34,000 -73 Level Albuquerque Center
Mon 12:05:57 AM 34.4325 -114.2228 255° West 508 585 33,900  Descending Los Angeles Center
Mon 12:06:58 AM 34.3914 -114.3875 253° West 512 589 34,000 49 Climbing Los Angeles Center
Mon 12:07:59 AM 34.3506 -114.5528 253° West 514 592 34,000 -49 Level Los Angeles Center
Mon 12:09:01 AM 34.3111 -114.7139 254° West 506 582 33,900  Descending Los Angeles Center
Mon 12:10:02 AM 34.2614 -114.9103 253° West 509 586 34,000 49 Climbing Los Angeles Center
Mon 12:11:04 AM 34.2200 -115.0733 253° West 510 587 34,000 -195 Level Los Angeles Center
Mon 12:12:05 AM 34.1786 -115.2386 253° West 513 590 33,600 -689 Descending Los Angeles Center
Mon 12:13:06 AM 34.1361 -115.4031 253° West 515 593 32,600 -927 Descending Los Angeles Center
Mon 12:14:08 AM 34.0947 -115.5689 253° West 517 595 31,700 -927 Descending Los Angeles Center
Mon 12:15:09 AM 34.0525 -115.7342 253° West 519 597 30,700 -1,180 Descending Los Angeles Center
Mon 12:16:10 AM 34.0089 -115.9006 252° West 520 598 29,300 -1,805 Descending Los Angeles Center
Mon 12:17:12 AM 33.9669 -116.0614 253° West 511 588 27,000 -2,439 Descending Los Angeles Center
Mon 12:18:13 AM 33.9181 -116.2478 253° West 491 565 24,300 -2,656 Descending Los Angeles Center
Mon 12:19:14 AM 33.8789 -116.3933 252° West 465 535 21,600 -2,705 Descending Los Angeles Center
Mon 12:20:15 AM 33.8767 -116.5478 269° West 467 537 18,800 -2,585 Descending Los Angeles Center
Mon 12:21:17 AM 33.8833 -116.7036 273° West 469 540 16,300 -2,341 Descending Los Angeles Center
Mon 12:22:18 AM 33.8875 -116.8514 272° West 452 520 14,000 -1,623 Descending Los Angeles Center
Mon 12:23:19 AM 33.8494 -116.9706 249° West 414 476 13,000 -1,082 Descending Los Angeles Center
Mon 12:24:20 AM 33.8033 -117.1050 248° West 371 427 11,800 -1,512 Descending Los Angeles Center
Mon 12:25:22 AM 33.7733 -117.2031 250° West 331 381 9,900 -1,610 Descending Los Angeles Center
Mon 12:26:23 AM 33.7794 -117.3011 274° West 301 346 8,500 -934 Descending Los Angeles Center
Mon 12:27:24 AM 33.7803 -117.3814 271° West 254 292 8,000 -246 Descending Los Angeles Center
Mon 12:28:25 AM 33.7794 -117.4550 269° West 226 260 8,000 -341 Level Los Angeles Center
Mon 12:29:27 AM 33.7803 -117.5292 271° West 223 257 7,300 -683 Descending Los Angeles Center
Mon 12:30:28 AM 33.7853 -117.6008 275° West 218 251 6,600 -539 Descending Los Angeles Center
Mon 12:30:56 AM 33.8000 -117.6500 290° West 215 247 6,500 -894 Descending Southern California TRACON
Mon 12:32:02 AM 33.7833 -117.7167 253° West 184 212 5,200 -1,524 Descending Southern California TRACON
Mon 12:33:02 AM 33.7833 -117.7667 270° West 172 198 3,300 -1,700 Descending Southern California TRACON
Mon 12:34:02 AM 33.7667 -117.8167 248° West 175 201 1,800 -1,150 Descending Southern California TRACON
Mon 12:35:02 AM 33.7333 -117.8333 203° Southwest 149 171 1,000 -750 Descending Southern California TRACON
Mon 12:36:02 AM 33.6833 -117.8667 209° Southwest 144 166 300 -700 Descending Southern California TRACON
Mon 12:38:00 AM 33.6757 -117.8682 132° Southeast  Level Estimated

Login

Don't have an account? Register now (free) for customized features, flight alerts, and more!